Time;durP1;ratioP1;P1;durP2;ratioP2;P2;SDS_P1;SDS_P2;PMS_P1;PMS_P2;Temp;Humidity;BMP_temperature;BMP_pressure;BME280_temperature;BME280_humidity;BME280_pressure;Samples;Min_cycle;Max_cycle;Signal;HPM_P1;HPM_P2
2021/08/23 00:02:10;;;;;;;2.97;1.98;;;;;;;15.05;100.00;101633.75;6206819;28;20050;-76
2021/08/23 00:05:12;;;;;;;3.30;2.00;;;;;;;15.12;100.00;101639.53;6216794;28;20061;-76
2021/08/23 00:08:14;;;;;;;2.95;1.92;;;;;;;15.06;100.00;101643.41;6223115;28;20054;-77
2021/08/23 00:11:17;;;;;;;3.80;1.67;;;;;;;15.01;100.00;101639.31;6223159;28;20433;-76
2021/08/23 00:14:19;;;;;;;4.10;2.42;;;;;;;15.01;100.00;101644.63;6222783;28;20057;-76
2021/08/23 00:17:20;;;;;;;3.40;2.17;;;;;;;14.94;100.00;101639.69;6223422;28;20046;-76
2021/08/23 00:20:25;;;;;;;3.40;2.03;;;;;;;14.95;100.00;101636.09;6222859;28;20536;-76
2021/08/23 00:23:28;;;;;;;2.67;1.90;;;;;;;14.90;100.00;101632.00;6222193;28;20099;-76
2021/08/23 00:26:30;;;;;;;2.63;1.88;;;;;;;14.89;100.00;101641.72;6216691;28;20050;-76
2021/08/23 00:29:31;;;;;;;2.78;2.00;;;;;;;14.88;100.00;101642.66;6219280;28;20056;-76
2021/08/23 00:32:33;;;;;;;1.75;1.30;;;;;;;14.85;100.00;101649.91;6222704;28;20413;-76
2021/08/23 00:35:34;;;;;;;3.13;1.80;;;;;;;14.88;100.00;101649.75;6222393;28;20054;-76
2021/08/23 00:38:36;;;;;;;3.58;2.22;;;;;;;14.91;100.00;101645.13;6222887;28;20049;-76
2021/08/23 00:41:39;;;;;;;3.05;1.73;;;;;;;14.87;100.00;101648.91;6222442;28;20046;-76
2021/08/23 00:44:42;;;;;;;4.00;1.88;;;;;;;14.87;100.00;101646.25;6222442;28;20057;-76
2021/08/23 00:47:43;;;;;;;2.40;1.60;;;;;;;14.88;100.00;101655.91;6222480;28;20053;-77
2021/08/23 00:50:45;;;;;;;1.77;1.40;;;;;;;14.90;100.00;101655.81;6222139;28;20057;-76
2021/08/23 00:53:47;;;;;;;3.85;2.13;;;;;;;14.93;100.00;101650.34;6221823;28;20057;-76
2021/08/23 00:56:50;;;;;;;3.15;1.95;;;;;;;14.93;100.00;101653.84;6222461;28;20054;-77
2021/08/23 00:59:52;;;;;;;3.85;1.70;;;;;;;14.90;100.00;101656.69;6222170;28;20046;-77
2021/08/23 01:03:00;;;;;;;3.70;1.67;;;;;;;14.91;100.00;101658.38;6222483;28;20052;-77
2021/08/23 01:06:04;;;;;;;2.10;1.70;;;;;;;14.85;100.00;101658.72;6221958;28;20054;-76
2021/08/23 01:09:09;;;;;;;2.15;1.50;;;;;;;14.86;100.00;101664.88;6222283;28;20060;-77
2021/08/23 01:12:13;;;;;;;3.03;2.20;;;;;;;14.91;100.00;101671.59;6222129;28;20046;-77
2021/08/23 01:15:15;;;;;;;2.22;1.65;;;;;;;14.89;100.00;101673.47;6222154;28;20417;-77
2021/08/23 01:18:16;;;;;;;2.78;1.80;;;;;;;14.87;100.00;101667.44;6222261;28;20050;-77
2021/08/23 01:21:21;;;;;;;3.03;1.85;;;;;;;14.87;100.00;101669.22;6221853;28;20093;-77
2021/08/23 01:24:23;;;;;;;3.05;1.98;;;;;;;14.88;100.00;101668.28;6221681;28;20425;-77
2021/08/23 01:27:27;;;;;;;3.08;2.03;;;;;;;14.93;100.00;101676.81;6222096;28;20053;-77
2021/08/23 01:30:36;;;;;;;2.85;1.60;;;;;;;14.84;100.00;101674.69;6221874;28;20058;-77
2021/08/23 01:33:39;;;;;;;3.10;1.93;;;;;;;14.87;100.00;101677.16;6221995;28;20054;-77
2021/08/23 01:36:41;;;;;;;2.70;1.70;;;;;;;14.88;100.00;101681.50;6225134;28;20046;-78
2021/08/23 01:39:42;;;;;;;4.35;2.30;;;;;;;14.87;100.00;101677.16;6226627;28;20050;-77
2021/08/23 01:42:44;;;;;;;2.38;1.65;;;;;;;14.90;100.00;101677.84;6226777;28;20057;-77
2021/08/23 01:45:45;;;;;;;2.53;1.80;;;;;;;14.85;100.00;101679.91;6226808;28;20050;-77
2021/08/23 01:48:48;;;;;;;2.65;1.75;;;;;;;14.80;100.00;101675.78;6226560;28;20050;-77
2021/08/23 01:51:50;;;;;;;2.90;2.00;;;;;;;14.78;100.00;101682.97;6226347;28;20046;-76
2021/08/23 01:54:51;;;;;;;3.42;2.00;;;;;;;14.78;100.00;101683.81;6226046;28;20061;-77
2021/08/23 01:57:52;;;;;;;3.20;2.13;;;;;;;14.81;100.00;101685.47;6226215;28;20068;-77
2021/08/23 02:00:54;;;;;;;4.38;2.00;;;;;;;14.77;100.00;101681.28;6226212;28;20057;-77
2021/08/23 02:03:56;;;;;;;4.15;1.88;;;;;;;14.78;100.00;101691.75;6225946;28;20409;-77
2021/08/23 02:06:58;;;;;;;4.25;1.90;;;;;;;14.78;100.00;101685.63;6226187;28;20049;-76
2021/08/23 02:09:59;;;;;;;2.80;2.03;;;;;;;14.79;100.00;101688.16;6226020;28;20057;-76
2021/08/23 02:13:00;;;;;;;6.05;2.97;;;;;;;14.76;100.00;101693.66;6226041;28;20535;-76
2021/08/23 02:16:02;;;;;;;4.90;2.60;;;;;;;14.75;100.00;101694.56;6225629;28;20057;-76
2021/08/23 02:19:04;;;;;;;7.25;2.50;;;;;;;14.75;100.00;101702.50;6225922;28;20057;-77
2021/08/23 02:22:06;;;;;;;3.00;2.15;;;;;;;14.78;100.00;101705.00;6225687;28;20056;-76
2021/08/23 02:25:08;;;;;;;3.42;2.20;;;;;;;14.77;100.00;101702.44;6225055;28;20057;-77
2021/08/23 02:28:10;;;;;;;3.55;1.85;;;;;;;14.78;100.00;101701.50;6225589;28;20073;-76
2021/08/23 02:31:11;;;;;;;4.15;2.08;;;;;;;14.81;100.00;101710.13;6225435;28;20058;-77
2021/08/23 02:34:14;;;;;;;3.97;2.20;;;;;;;14.77;100.00;101707.72;6225409;28;20045;-76
2021/08/23 02:37:15;;;;;;;3.85;1.80;;;;;;;14.80;100.00;101715.47;6225323;28;20050;-76
2021/08/23 02:40:16;;;;;;;3.97;2.53;;;;;;;14.82;100.00;101714.47;6225621;28;20046;-76
2021/08/23 02:43:18;;;;;;;3.45;2.38;;;;;;;14.82;100.00;101726.84;6225105;28;20042;-76
2021/08/23 02:46:20;;;;;;;4.97;2.80;;;;;;;14.80;100.00;101721.63;6224616;28;20050;-76
2021/08/23 02:49:23;;;;;;;5.57;2.75;;;;;;;14.76;100.00;101717.47;6224462;28;20060;-77
2021/08/23 02:52:25;;;;;;;4.28;2.25;;;;;;;14.78;100.00;101727.97;6225191;28;20045;-76
2021/08/23 02:55:26;;;;;;;6.40;2.80;;;;;;;14.78;100.00;101728.81;6224661;28;20060;-77
2021/08/23 02:58:27;;;;;;;5.75;2.70;;;;;;;14.78;100.00;101727.97;6224954;28;20501;-77
2021/08/23 03:01:29;;;;;;;6.00;3.28;;;;;;;14.80;100.00;101736.66;6224709;28;20061;-77
2021/08/23 03:04:31;;;;;;;5.00;3.03;;;;;;;14.76;100.00;101737.75;6224867;28;20064;-77
2021/08/23 03:07:33;;;;;;;5.22;2.80;;;;;;;14.74;100.00;101734.34;6224678;28;20077;-76
2021/08/23 03:10:35;;;;;;;5.18;2.97;;;;;;;14.77;100.00;101723.63;6224669;28;20056;-77
2021/08/23 03:13:37;;;;;;;4.75;2.67;;;;;;;14.71;100.00;101722.97;6224346;28;20138;-76
2021/08/23 03:16:38;;;;;;;7.95;3.63;;;;;;;14.68;100.00;101727.63;6224363;28;20494;-77
2021/08/23 03:19:41;;;;;;;3.47;2.60;;;;;;;14.69;100.00;101729.31;6224498;28;20050;-76
2021/08/23 03:22:42;;;;;;;4.20;2.90;;;;;;;14.67;100.00;101721.47;6224131;28;20053;-76
2021/08/23 03:25:44;;;;;;;5.55;3.47;;;;;;;14.65;100.00;101728.63;6224239;28;20049;-76
2021/08/23 03:28:45;;;;;;;5.88;3.20;;;;;;;14.63;100.00;101724.38;6224095;28;20413;-76
2021/08/23 03:31:47;;;;;;;7.75;3.40;;;;;;;14.65;100.00;101733.91;6223976;28;20046;-76
2021/08/23 03:34:49;;;;;;;4.60;2.90;;;;;;;14.69;100.00;101743.41;6223848;28;20050;-76
2021/08/23 03:37:51;;;;;;;6.82;3.22;;;;;;;14.66;100.00;101740.06;6224187;28;20520;-76
2021/08/23 03:40:52;;;;;;;6.63;3.60;;;;;;;14.61;100.00;101747.38;6215547;28;20057;-76
2021/08/23 03:43:53;;;;;;;5.75;3.58;;;;;;;14.62;100.00;101747.28;6174937;28;20050;-76
2021/08/23 03:46:56;;;;;;;6.53;3.78;;;;;;;14.61;100.00;101745.59;6175352;28;20051;-77
2021/08/23 03:49:59;;;;;;;6.43;4.05;;;;;;;14.63;100.00;101753.47;6174932;28;20426;-76
2021/08/23 03:53:00;;;;;;;5.13;3.92;;;;;;;14.61;100.00;101750.88;6182496;28;20054;-76
2021/08/23 03:56:01;;;;;;;6.00;3.63;;;;;;;14.64;100.00;101749.88;6186289;28;20046;-76
2021/08/23 03:59:03;;;;;;;7.35;3.80;;;;;;;14.69;100.00;101750.47;6184829;28;20051;-77
2021/08/23 04:02:04;;;;;;;6.30;4.35;;;;;;;14.68;100.00;101746.13;6187038;28;20047;-76
2021/08/23 04:05:08;;;;;;;8.38;4.80;;;;;;;14.66;100.00;101756.78;6185509;28;20054;-77
2021/08/23 04:08:09;;;;;;;7.10;4.35;;;;;;;14.64;100.00;101750.72;6188328;28;20057;-77
2021/08/23 04:11:11;;;;;;;6.50;4.13;;;;;;;14.70;100.00;101755.69;6195840;28;20497;-77
2021/08/23 04:14:13;;;;;;;8.68;3.72;;;;;;;14.61;100.00;101760.63;6198809;28;20409;-77
2021/08/23 04:17:14;;;;;;;7.97;4.22;;;;;;;14.68;100.00;101767.31;6198838;28;20674;-77
2021/08/23 04:20:17;;;;;;;7.80;4.40;;;;;;;14.63;100.00;101772.00;6198746;28;20061;-76
2021/08/23 04:23:18;;;;;;;7.75;4.43;;;;;;;14.62;100.00;101778.19;6198680;28;20046;-76
2021/08/23 04:26:19;;;;;;;8.15;4.93;;;;;;;14.69;100.00;101784.88;6198512;28;20058;-77
2021/08/23 04:29:21;;;;;;;6.75;4.18;;;;;;;14.57;100.00;101785.53;6198327;28;20051;-77
2021/08/23 04:32:22;;;;;;;9.90;5.80;;;;;;;14.57;100.00;101781.09;6198671;28;20043;-76
2021/08/23 04:35:25;;;;;;;9.43;4.97;;;;;;;14.56;100.00;101782.03;6198245;28;20046;-77
2021/08/23 04:38:26;;;;;;;9.07;4.85;;;;;;;14.54;100.00;101783.91;6198261;28;20057;-76
2021/08/23 04:41:27;;;;;;;9.23;5.07;;;;;;;14.59;100.00;101783.66;6198479;28;20050;-77
2021/08/23 04:44:29;;;;;;;9.18;4.18;;;;;;;14.52;100.00;101782.28;6197853;28;20050;-77
2021/08/23 04:47:30;;;;;;;7.70;4.63;;;;;;;14.58;100.00;101782.81;6197985;28;20169;-77
2021/08/23 04:50:33;;;;;;;10.82;5.55;;;;;;;14.55;100.00;101785.63;6198224;28;20054;-76
2021/08/23 04:53:34;;;;;;;10.52;5.30;;;;;;;14.56;100.00;101795.25;6197701;28;20135;-76
2021/08/23 04:56:36;;;;;;;8.60;4.55;;;;;;;14.50;100.00;101800.88;6198005;28;20073;-77
2021/08/23 04:59:37;;;;;;;7.53;3.95;;;;;;;14.51;100.00;101799.09;6198078;28;20057;-77
2021/08/23 05:02:39;;;;;;;7.05;4.07;;;;;;;14.54;100.00;101796.28;6197742;28;20408;-77
2021/08/23 05:05:43;;;;;;;8.70;4.43;;;;;;;14.49;100.00;101804.47;6197636;28;20054;-77
2021/08/23 05:08:44;;;;;;;8.55;4.35;;;;;;;14.51;100.00;101807.03;6197938;28;20057;-76
2021/08/23 05:11:46;;;;;;;11.00;4.15;;;;;;;14.49;100.00;101816.81;6197585;28;20417;-76
2021/08/23 05:14:47;;;;;;;8.20;3.60;;;;;;;14.51;100.00;101826.41;6197901;28;20493;-76
2021/08/23 05:17:48;;;;;;;8.10;4.43;;;;;;;14.54;100.00;101833.31;6197785;28;20433;-77
2021/08/23 05:20:51;;;;;;;8.45;4.38;;;;;;;14.64;100.00;101834.53;6197737;28;20057;-77
2021/08/23 05:23:52;;;;;;;8.43;3.83;;;;;;;14.53;100.00;101828.94;6197439;28;20050;-77
2021/08/23 05:26:54;;;;;;;6.70;3.28;;;;;;;14.66;100.00;101825.56;6197596;28;20046;-77
2021/08/23 05:29:55;;;;;;;6.45;3.85;;;;;;;14.62;100.00;101836.41;6197683;28;20498;-77
2021/08/23 05:32:57;;;;;;;4.47;3.42;;;;;;;14.60;100.00;101839.13;6197577;28;20065;-76
2021/08/23 05:35:59;;;;;;;6.05;2.65;;;;;;;14.57;100.00;101831.34;6197435;28;20050;-77
2021/08/23 05:39:01;;;;;;;6.38;4.38;;;;;;;14.54;100.00;101841.25;6197590;28;20061;-77
2021/08/23 05:42:02;;;;;;;7.70;3.80;;;;;;;14.58;100.00;101848.06;6197633;28;20050;-77
2021/08/23 05:45:04;;;;;;;5.63;3.05;;;;;;;14.50;100.00;101837.91;6197238;28;20053;-76
2021/08/23 05:48:06;;;;;;;6.45;3.33;;;;;;;14.45;100.00;101846.06;6197579;28;20511;-76
2021/08/23 05:51:13;;;;;;;4.60;2.97;;;;;;;14.46;100.00;101846.91;6218982;23;20054;-76
2021/08/23 05:54:15;;;;;;;6.03;3.97;;;;;;;14.45;100.00;101845.22;6197459;28;20417;-76
2021/08/23 05:57:16;;;;;;;6.50;3.88;;;;;;;14.48;100.00;101855.63;6197481;28;20058;-76
2021/08/23 06:00:19;;;;;;;5.97;3.15;;;;;;;14.47;100.00;101851.25;6197429;28;20073;-76
2021/08/23 06:03:20;;;;;;;6.55;3.13;;;;;;;14.46;100.00;101853.06;6197382;28;20058;-75
2021/08/23 06:06:23;;;;;;;5.97;2.92;;;;;;;14.52;100.00;101846.59;6197244;28;20046;-76
2021/08/23 06:09:24;;;;;;;5.95;3.42;;;;;;;14.55;100.00;101857.03;6197614;28;20493;-76
2021/08/23 06:12:26;;;;;;;5.38;2.92;;;;;;;14.54;100.00;101860.63;6196851;28;20677;-76
2021/08/23 06:15:27;;;;;;;4.70;3.08;;;;;;;14.58;100.00;101859.53;6196951;28;20050;-76
2021/08/23 06:18:28;;;;;;;5.97;2.45;;;;;;;14.60;100.00;101870.88;6197234;28;20046;-76
2021/08/23 06:21:34;;;;;;;3.88;2.33;;;;;;;14.62;100.00;101865.50;6197332;28;20046;-76
2021/08/23 06:24:35;;;;;;;3.70;2.00;;;;;;;14.65;100.00;101866.19;6201148;28;20057;-76
2021/08/23 06:27:36;;;;;;;4.18;2.28;;;;;;;14.67;100.00;101864.34;6201532;28;20054;-76
2021/08/23 06:30:38;;;;;;;4.78;2.65;;;;;;;14.71;100.00;101865.88;6194656;28;20132;-76
2021/08/23 06:33:39;;;;;;;3.80;1.95;;;;;;;14.73;100.00;101859.66;6200932;28;20395;-76
2021/08/23 06:36:44;;;;;;;1.83;1.40;;;;;;;14.80;100.00;101869.81;6201457;28;20042;-76
2021/08/23 06:39:46;;;;;;;2.92;1.83;;;;;;;14.83;100.00;101874.09;6201106;28;20541;-75
2021/08/23 06:42:47;;;;;;;2.50;1.50;;;;;;;14.86;100.00;101879.25;6201152;28;20042;-75
2021/08/23 06:45:48;;;;;;;2.10;1.40;;;;;;;14.91;100.00;101880.72;6200710;28;20050;-75
2021/08/23 06:48:50;;;;;;;1.80;1.52;;;;;;;14.95;100.00;101881.41;6200933;28;20050;-75
2021/08/23 06:52:00;;;;;;;2.05;1.52;;;;;;;14.98;100.00;101884.72;6210175;28;20053;-76
2021/08/23 06:55:01;;;;;;;2.85;1.45;;;;;;;15.02;100.00;101892.50;6207836;28;20046;-75
2021/08/23 06:58:03;;;;;;;1.83;1.27;;;;;;;15.10;100.00;101899.09;6211242;28;20489;-75
2021/08/23 07:01:05;;;;;;;2.00;1.60;;;;;;;15.04;100.00;101898.59;6210970;28;20045;-75
2021/08/23 07:04:07;;;;;;;3.45;1.50;;;;;;;15.10;100.00;101907.03;6211463;28;20053;-75
2021/08/23 07:07:10;;;;;;;1.98;1.10;;;;;;;15.07;100.00;101911.66;6210294;28;20527;-75
2021/08/23 07:10:12;;;;;;;1.90;1.50;;;;;;;15.08;100.00;101910.69;6212539;28;20054;-75
2021/08/23 07:13:14;;;;;;;1.67;1.20;;;;;;;15.13;100.00;101917.47;6207512;28;20046;-75
2021/08/23 07:16:15;;;;;;;1.30;1.10;;;;;;;15.17;100.00;101918.16;6212218;28;20049;-75
2021/08/23 07:19:16;;;;;;;2.47;1.48;;;;;;;15.17;100.00;101915.50;6211921;28;20417;-75
2021/08/23 07:22:19;;;;;;;4.68;1.27;;;;;;;15.17;100.00;101921.69;6210414;28;20050;-75
2021/08/23 07:25:21;;;;;;;3.03;1.98;;;;;;;15.31;100.00;101928.88;6224550;28;20053;-75
2021/08/23 07:28:22;;;;;;;3.30;1.02;;;;;;;15.34;100.00;101925.19;6224663;28;20050;-75
2021/08/23 07:31:23;;;;;;;2.13;1.40;;;;;;;15.41;100.00;101929.22;6224240;28;20061;-76
2021/08/23 07:34:25;;;;;;;4.85;1.95;;;;;;;15.53;100.00;101932.97;6223052;28;20421;-75
2021/08/23 07:37:29;;;;;;;1.60;1.10;;;;;;;15.56;100.00;101944.28;6224149;28;20249;-75
2021/08/23 07:40:31;;;;;;;1.77;1.20;;;;;;;15.54;100.00;101946.16;6213342;28;20546;-75
2021/08/23 07:43:32;;;;;;;2.05;1.85;;;;;;;15.43;100.00;101954.69;6199474;28;20397;-75
2021/08/23 07:46:33;;;;;;;1.70;1.27;;;;;;;15.55;100.00;101958.47;6199630;28;20421;-76
2021/08/23 07:49:35;;;;;;;1.42;0.98;;;;;;;15.41;100.00;101953.91;6199488;28;20050;-75
2021/08/23 07:52:39;;;;;;;1.30;1.00;;;;;;;15.51;100.00;101966.66;6199664;28;20449;-76
2021/08/23 07:55:40;;;;;;;1.73;1.17;;;;;;;15.53;100.00;101955.03;6199142;28;20057;-76
2021/08/23 07:58:42;;;;;;;4.13;1.85;;;;;;;15.60;100.00;101951.13;6199674;28;20401;-75
2021/08/23 08:01:43;;;;;;;2.30;1.73;;;;;;;15.63;100.00;101956.25;6197760;28;20049;-76
2021/08/23 08:04:44;;;;;;;1.50;1.10;;;;;;;15.66;100.00;101953.44;6190264;28;20046;-76
2021/08/23 08:07:48;;;;;;;1.38;1.13;;;;;;;15.64;100.00;101962.44;6195767;28;20072;-74
2021/08/23 08:10:49;;;;;;;1.30;1.17;;;;;;;15.62;100.00;101962.47;6198950;28;20061;-76
2021/08/23 08:13:50;;;;;;;2.08;1.30;;;;;;;15.69;100.00;101966.53;6200101;28;20049;-76
2021/08/23 08:16:52;;;;;;;1.95;1.50;;;;;;;15.65;100.00;101965.00;6208236;28;20050;-76
2021/08/23 08:19:55;;;;;;;4.93;1.80;;;;;;;15.68;100.00;101971.94;6203743;28;20054;-76
2021/08/23 08:22:57;;;;;;;1.88;1.52;;;;;;;15.66;100.00;101981.75;6198521;28;20413;-75
2021/08/23 08:25:59;;;;;;;3.42;1.65;;;;;;;15.66;100.00;101977.31;6198522;28;20047;-75
2021/08/23 08:29:01;;;;;;;4.45;1.27;;;;;;;15.64;100.00;101979.19;6198349;28;20070;-73
2021/08/23 08:32:03;;;;;;;3.72;1.35;;;;;;;15.65;100.00;101983.53;6198883;28;20051;-74
2021/08/23 08:35:05;;;;;;;2.85;1.70;;;;;;;15.75;100.00;101978.59;6198195;28;20453;-74
2021/08/23 08:38:07;;;;;;;1.40;1.23;;;;;;;15.93;100.00;101987.31;6198592;28;20104;-74
2021/08/23 08:41:09;;;;;;;2.17;1.40;;;;;;;15.89;100.00;101991.06;6203411;28;20100;-74
2021/08/23 08:44:11;;;;;;;2.75;1.38;;;;;;;16.05;100.00;101985.78;6212669;28;20045;-74
2021/08/23 08:47:16;;;;;;;2.00;1.60;;;;;;;16.03;100.00;101990.31;6209501;28;20564;-74
2021/08/23 08:50:18;;;;;;;2.58;1.23;;;;;;;16.04;100.00;101995.53;6201302;28;20050;-76
2021/08/23 08:53:21;;;;;;;2.30;1.27;;;;;;;16.07;100.00;101997.16;6192522;28;20057;-75
2021/08/23 08:56:22;;;;;;;4.72;1.40;;;;;;;16.17;100.00;101999.22;6197696;28;20050;-75
2021/08/23 08:59:24;;;;;;;2.10;1.42;;;;;;;16.16;100.00;102010.75;6194299;28;20414;-75
2021/08/23 09:02:26;;;;;;;5.35;1.48;;;;;;;16.17;100.00;102015.13;6198360;28;20054;-75
2021/08/23 09:05:36;;;;;;;1.13;1.00;;;;;;;16.33;100.00;102019.56;6197409;28;20046;-74
2021/08/23 09:08:43;;;;;;;2.67;1.30;;;;;;;16.41;100.00;102018.16;6197996;28;20054;-75
2021/08/23 09:11:56;;;;;;;1.88;1.25;;;;;;;16.63;100.00;102014.28;6196935;28;20050;-75
2021/08/23 09:14:57;;;;;;;2.22;1.75;;;;;;;16.63;100.00;102020.44;6197651;28;20079;-73
2021/08/23 09:18:05;;;;;;;3.08;1.35;;;;;;;16.62;100.00;102017.84;6189894;28;20453;-75
2021/08/23 09:21:10;;;;;;;2.38;1.23;;;;;;;16.65;100.00;102021.19;6197945;28;20529;-75
2021/08/23 09:24:19;;;;;;;1.50;1.00;;;;;;;16.79;100.00;102017.75;6197358;28;20417;-77
2021/08/23 09:27:20;;;;;;;1.48;1.00;;;;;;;16.77;100.00;102019.66;6198155;28;20046;-76
2021/08/23 09:30:23;;;;;;;1.90;1.35;;;;;;;16.87;100.00;102019.97;6197946;28;20512;-78
2021/08/23 09:33:24;;;;;;;2.25;1.17;;;;;;;16.94;100.00;102026.59;6197651;28;20049;-77
2021/08/23 09:36:26;;;;;;;1.35;1.20;;;;;;;17.02;100.00;102034.13;6198816;28;20058;-78
2021/08/23 09:39:29;;;;;;;1.50;1.17;;;;;;;16.99;100.00;102028.06;6197984;28;20054;-76
2021/08/23 09:42:31;;;;;;;2.65;1.10;;;;;;;16.96;100.00;102032.69;6200130;28;20042;-78
2021/08/23 09:45:32;;;;;;;1.42;1.10;;;;;;;17.19;100.00;102028.66;6194453;28;20050;-76
2021/08/23 09:48:37;;;;;;;1.80;1.17;;;;;;;17.33;100.00;102027.81;6180383;28;20054;-77
2021/08/23 09:51:41;;;;;;;1.77;1.10;;;;;;;17.46;100.00;102029.63;6197897;28;20061;-78
2021/08/23 09:54:43;;;;;;;1.77;0.95;;;;;;;17.60;100.00;102031.41;6194862;28;20517;-78
2021/08/23 09:57:45;;;;;;;1.88;0.95;;;;;;;17.48;100.00;102026.84;6200930;28;20057;-76
2021/08/23 10:00:47;;;;;;;1.67;0.93;;;;;;;17.56;100.00;102029.06;6202342;28;20090;-76
2021/08/23 10:03:49;;;;;;;1.08;0.93;;;;;;;17.73;100.00;102019.09;6201470;28;20054;-75
2021/08/23 10:06:53;;;;;;;1.02;0.82;;;;;;;17.87;99.36;102028.00;6202307;28;20049;-75
2021/08/23 10:10:00;;;;;;;2.67;1.15;;;;;;;17.87;100.00;102034.19;6201894;28;20053;-77
2021/08/23 10:13:01;;;;;;;1.50;0.93;;;;;;;17.93;100.00;102038.25;6202033;28;20555;-76
2021/08/23 10:16:03;;;;;;;0.77;0.70;;;;;;;17.97;100.00;102023.81;6201562;28;20049;-76
2021/08/23 10:19:06;;;;;;;1.25;0.90;;;;;;;17.97;100.00;102029.13;6202107;28;20498;-77
2021/08/23 10:22:08;;;;;;;1.75;0.90;;;;;;;18.09;100.00;102032.81;6201989;28;20057;-76
2021/08/23 10:25:11;;;;;;;1.20;0.80;;;;;;;18.20;100.00;102036.47;6201655;28;20042;-76
2021/08/23 10:28:16;;;;;;;0.82;0.70;;;;;;;18.33;100.00;102041.00;6201747;28;20058;-76
2021/08/23 10:31:19;;;;;;;2.78;1.15;;;;;;;18.46;97.37;102037.44;6201357;28;20595;-77
2021/08/23 10:34:22;;;;;;;0.43;0.43;;;;;;;18.52;96.79;102042.34;6201207;28;20046;-76
2021/08/23 10:37:25;;;;;;;1.15;0.57;;;;;;;18.77;94.08;102045.25;6201468;28;20058;-76
2021/08/23 10:40:35;;;;;;;1.45;0.63;;;;;;;18.91;92.45;102032.69;6201806;28;20135;-76
2021/08/23 10:43:48;;;;;;;0.60;0.60;;;;;;;19.08;85.18;102039.53;6201453;28;20061;-76
2021/08/23 10:46:50;;;;;;;0.95;0.73;;;;;;;19.12;80.54;102041.03;6201826;28;20490;-77
2021/08/23 10:49:51;;;;;;;0.95;0.68;;;;;;;19.33;85.03;102030.69;6201209;28;20058;-76
2021/08/23 10:52:55;;;;;;;0.77;0.47;;;;;;;19.40;78.93;102029.31;6202365;28;20050;-77
2021/08/23 10:55:58;;;;;;;2.38;0.75;;;;;;;19.57;81.22;102036.09;6202196;28;20046;-78
2021/08/23 10:58:59;;;;;;;1.45;0.50;;;;;;;19.43;82.38;102038.88;6200701;28;20414;-76
2021/08/23 11:02:00;;;;;;;0.85;0.50;;;;;;;19.46;73.37;102030.69;6201527;28;20051;-76
2021/08/23 11:05:06;;;;;;;1.35;0.57;;;;;;;19.34;76.72;102027.06;6200895;28;20394;-76
2021/08/23 11:08:13;;;;;;;1.23;0.75;;;;;;;19.38;76.41;102030.38;6200160;28;20050;-77
2021/08/23 11:11:16;;;;;;;1.23;0.50;;;;;;;19.22;77.14;102034.09;6200896;28;20072;-76
2021/08/23 11:14:18;;;;;;;0.50;0.50;;;;;;;19.09;77.05;102037.72;6200656;28;20449;-77
2021/08/23 11:17:27;;;;;;;0.40;0.40;;;;;;;18.98;74.98;102035.78;6200865;28;20057;-77
2021/08/23 11:20:30;;;;;;;0.52;0.50;;;;;;;19.15;69.68;102042.63;6200665;28;20058;-77
2021/08/23 11:23:32;;;;;;;0.55;0.43;;;;;;;19.56;69.56;102042.41;6201193;28;20410;-73
2021/08/23 11:26:34;;;;;;;0.85;0.60;;;;;;;19.81;74.18;102033.56;6200196;28;20042;-76
2021/08/23 11:29:38;;;;;;;0.45;0.40;;;;;;;20.19;75.53;102033.41;6200924;28;20057;-79
2021/08/23 11:32:40;;;;;;;0.38;0.30;;;;;;;20.39;71.44;102034.59;6199087;28;20119;-74
2021/08/23 11:35:46;;;;;;;0.70;0.50;;;;;;;20.70;72.18;102029.69;6199568;28;20074;-77
2021/08/23 11:38:48;;;;;;;0.45;0.35;;;;;;;20.76;72.33;102035.44;6199719;28;20050;-77
2021/08/23 11:41:58;;;;;;;1.17;0.30;;;;;;;20.52;70.28;102030.09;6198290;28;20054;-79
2021/08/23 11:45:00;;;;;;;0.45;0.45;;;;;;;20.96;67.35;102033.03;6195128;28;20053;-76
2021/08/23 11:48:01;;;;;;;0.80;0.50;;;;;;;20.77;61.51;102029.09;6200942;28;20058;-77
2021/08/23 11:51:03;;;;;;;0.93;0.52;;;;;;;20.57;69.75;102036.91;6240531;23;20042;-78
2021/08/23 11:54:06;;;;;;;1.02;0.40;;;;;;;20.52;68.78;102043.44;6247454;28;20045;-78
2021/08/23 11:57:09;;;;;;;1.10;0.50;;;;;;;20.99;63.42;102030.16;6245545;28;20053;-81
2021/08/23 12:00:15;;;;;;;1.88;0.40;;;;;;;21.45;67.26;102039.97;6247199;28;20060;-79
2021/08/23 12:03:17;;;;;;;0.30;0.30;;;;;;;21.82;63.13;102042.38;6248637;28;20053;-80
2021/08/23 12:06:19;;;;;;;1.23;0.50;;;;;;;22.12;61.07;102042.63;6247812;28;20041;-81
2021/08/23 12:09:20;;;;;;;1.08;0.43;;;;;;;21.65;62.53;102046.41;6247086;28;20049;-81
2021/08/23 12:12:23;;;;;;;0.80;0.32;;;;;;;21.34;63.12;102050.63;6248271;28;20045;-81
2021/08/23 12:15:25;;;;;;;1.13;0.70;;;;;;;21.67;63.11;102042.63;6248300;28;20056;-81
2021/08/23 12:18:35;;;;;;;0.45;0.30;;;;;;;22.10;56.31;102036.47;6248300;28;20126;-80
2021/08/23 12:21:37;;;;;;;0.35;0.35;;;;;;;22.36;58.86;102045.09;6247954;28;20056;-78
2021/08/23 12:24:39;;;;;;;0.50;0.40;;;;;;;22.62;54.25;102047.41;6247652;28;20056;-80
2021/08/23 12:27:50;;;;;;;0.50;0.50;;;;;;;22.59;53.67;102040.50;6248104;28;20046;-80
2021/08/23 12:31:05;;;;;;;0.82;0.45;;;;;;;22.72;58.21;102038.50;6240729;28;20052;-78
2021/08/23 12:34:14;;;;;;;1.08;0.52;;;;;;;22.91;54.99;102043.19;6230837;28;20055;-78
2021/08/23 12:37:16;;;;;;;2.15;1.05;;;;;;;22.92;54.81;102044.03;6247874;28;20064;-78
2021/08/23 12:40:18;;;;;;;0.90;0.60;;;;;;;22.24;57.41;102044.25;6247717;28;20057;-80
2021/08/23 12:43:20;;;;;;;65.38;13.13;;;;;;;22.19;59.54;102040.28;6247677;28;20060;-80
2021/08/23 12:46:22;;;;;;;0.75;0.47;;;;;;;22.43;51.95;102043.59;6242631;28;20044;-80
2021/08/23 12:49:23;;;;;;;1.42;0.70;;;;;;;22.74;50.81;102054.44;6248141;28;20045;-80
2021/08/23 12:52:25;;;;;;;1.90;0.70;;;;;;;22.82;52.94;102049.28;6247788;28;20046;-81
2021/08/23 12:55:27;;;;;;;1.10;0.70;;;;;;;22.89;47.39;102046.91;6245043;28;20049;-80
2021/08/23 12:58:30;;;;;;;1.35;0.57;;;;;;;22.85;53.00;102054.41;6220177;28;20052;-79
2021/08/23 13:01:32;;;;;;;1.02;0.68;;;;;;;23.12;50.50;102045.00;6244435;28;20049;-79
2021/08/23 13:04:34;;;;;;;0.63;0.45;;;;;;;23.22;54.73;102044.09;6243125;28;20045;-79
2021/08/23 13:07:35;;;;;;;1.90;0.70;;;;;;;23.37;55.12;102039.22;6224031;28;20054;-77
2021/08/23 13:10:42;;;;;;;0.95;0.70;;;;;;;22.97;48.28;102048.00;6223708;28;20046;-78
2021/08/23 13:13:45;;;;;;;0.77;0.60;;;;;;;22.70;49.90;102058.34;6212535;28;20097;-80
2021/08/23 13:16:46;;;;;;;1.33;0.80;;;;;;;22.84;50.61;102043.78;6198646;28;20046;-78
2021/08/23 13:19:48;;;;;;;0.98;0.57;;;;;;;23.17;53.53;102040.09;6198991;28;20054;-77
2021/08/23 13:22:49;;;;;;;1.70;1.05;;;;;;;23.39;49.40;102042.63;6199636;28;20053;-78
2021/08/23 13:25:50;;;;;;;1.95;0.80;;;;;;;23.07;50.75;102045.38;6237164;28;20511;-78
2021/08/23 13:28:54;;;;;;;1.10;0.65;;;;;;;23.13;52.34;102054.75;6245203;28;20046;-77
2021/08/23 13:31:56;;;;;;;1.20;0.75;;;;;;;23.42;54.42;102053.06;6229644;28;20045;-78
2021/08/23 13:34:57;;;;;;;1.45;0.65;;;;;;;23.61;52.21;102049.63;6240455;28;20527;-78
2021/08/23 13:37:58;;;;;;;1.00;0.73;;;;;;;23.70;48.99;102048.00;6247251;28;20050;-77
2021/08/23 13:41:00;;;;;;;1.08;0.60;;;;;;;23.77;47.99;102055.38;6231290;28;20512;-78
2021/08/23 13:44:02;;;;;;;1.27;0.88;;;;;;;23.80;50.51;102048.91;6237653;28;20058;-77
2021/08/23 13:47:04;;;;;;;5.30;0.90;;;;;;;23.39;48.89;102042.63;6202808;28;20046;-78
2021/08/23 13:50:06;;;;;;;2.13;1.00;;;;;;;22.75;52.59;102062.34;6240249;28;20069;-78
2021/08/23 13:53:08;;;;;;;0.50;0.50;;;;;;;22.21;54.96;102062.41;6245724;28;20068;-78
2021/08/23 13:56:09;;;;;;;1.05;0.80;;;;;;;21.99;52.98;102066.81;6251941;28;20053;-79
2021/08/23 13:59:12;;;;;;;1.48;0.80;;;;;;;22.20;50.32;102060.72;6228927;28;20054;-79
2021/08/23 14:02:13;;;;;;;4.38;0.85;;;;;;;21.65;54.25;102057.94;6237169;28;20054;-79